sensor_id;sensor_type;location;lat;lon;timestamp;pressure;altitude;pressure_sealevel;temperature;humidity
54455;BME280;40364;52.270;10.546;2022-11-15T00:00:15;100204.38;;;15.49;61.32
54455;BME280;40364;52.270;10.546;2022-11-15T00:02:42;100200.09;;;15.22;62.03
54455;BME280;40364;52.270;10.546;2022-11-15T00:05:09;100196.81;;;15.53;60.97
54455;BME280;40364;52.270;10.546;2022-11-15T00:07:35;100192.72;;;15.10;62.98
54455;BME280;40364;52.270;10.546;2022-11-15T00:10:04;100187.66;;;14.56;67.10
54455;BME280;40364;52.270;10.546;2022-11-15T00:12:31;100188.09;;;15.25;63.69
54455;BME280;40364;52.270;10.546;2022-11-15T00:14:58;100188.91;;;15.29;63.24
54455;BME280;40364;52.270;10.546;2022-11-15T00:17:24;100195.81;;;14.68;66.59
54455;BME280;40364;52.270;10.546;2022-11-15T00:19:51;100196.78;;;15.12;63.54
54455;BME280;40364;52.270;10.546;2022-11-15T00:22:18;100190.25;;;14.71;66.52
54455;BME280;40364;52.270;10.546;2022-11-15T00:24:44;100187.00;;;14.99;64.04
54455;BME280;40364;52.270;10.546;2022-11-15T00:27:12;100191.16;;;15.12;63.88
54455;BME280;40364;52.270;10.546;2022-11-15T00:29:39;100205.38;;;14.93;65.01
54455;BME280;40364;52.270;10.546;2022-11-15T00:32:08;100196.09;;;14.89;65.75
54455;BME280;40364;52.270;10.546;2022-11-15T00:34:35;100192.22;;;15.38;63.26
54455;BME280;40364;52.270;10.546;2022-11-15T00:37:02;100195.03;;;15.38;62.17
54455;BME280;40364;52.270;10.546;2022-11-15T00:39:28;100188.97;;;14.95;65.18
54455;BME280;40364;52.270;10.546;2022-11-15T00:41:55;100202.91;;;15.59;61.94
54455;BME280;40364;52.270;10.546;2022-11-15T00:44:23;100200.00;;;15.52;61.67
54455;BME280;40364;52.270;10.546;2022-11-15T00:46:50;100190.25;;;15.79;60.93
54455;BME280;40364;52.270;10.546;2022-11-15T00:49:16;100198.22;;;15.73;60.44
54455;BME280;40364;52.270;10.546;2022-11-15T00:51:43;100197.47;;;15.76;60.64
54455;BME280;40364;52.270;10.546;2022-11-15T00:54:10;100194.06;;;15.57;60.82
54455;BME280;40364;52.270;10.546;2022-11-15T00:56:36;100196.00;;;14.82;63.95
54455;BME280;40364;52.270;10.546;2022-11-15T00:59:03;100206.16;;;15.64;61.58
54455;BME280;40364;52.270;10.546;2022-11-15T01:01:31;100192.88;;;14.87;64.55
54455;BME280;40364;52.270;10.546;2022-11-15T01:03:58;100194.78;;;14.79;65.24
54455;BME280;40364;52.270;10.546;2022-11-15T01:06:25;100183.34;;;14.62;65.80
54455;BME280;40364;52.270;10.546;2022-11-15T01:08:51;100177.72;;;14.62;65.86
54455;BME280;40364;52.270;10.546;2022-11-15T01:11:18;100181.75;;;14.38;67.29
54455;BME280;40364;52.270;10.546;2022-11-15T01:13:45;100171.66;;;14.30;67.72
54455;BME280;40364;52.270;10.546;2022-11-15T01:16:13;100164.63;;;14.16;68.20
54455;BME280;40364;52.270;10.546;2022-11-15T01:18:45;100164.59;;;14.13;70.02
54455;BME280;40364;52.270;10.546;2022-11-15T01:21:16;100164.94;;;13.85;72.67
54455;BME280;40364;52.270;10.546;2022-11-15T01:23:43;100171.31;;;13.82;72.62
54455;BME280;40364;52.270;10.546;2022-11-15T01:26:12;100163.94;;;14.23;70.66
54455;BME280;40364;52.270;10.546;2022-11-15T01:28:41;100157.09;;;13.45;75.89
54455;BME280;40364;52.270;10.546;2022-11-15T01:31:12;100166.78;;;13.74;74.57
54455;BME280;40364;52.270;10.546;2022-11-15T01:33:39;100162.34;;;13.96;71.54
54455;BME280;40364;52.270;10.546;2022-11-15T01:36:11;100166.34;;;14.81;68.71
54455;BME280;40364;52.270;10.546;2022-11-15T01:38:38;100161.38;;;15.01;66.47
54455;BME280;40364;52.270;10.546;2022-11-15T01:41:05;100171.66;;;15.23;66.11
54455;BME280;40364;52.270;10.546;2022-11-15T01:43:33;100163.66;;;15.66;63.13
54455;BME280;40364;52.270;10.546;2022-11-15T01:46:03;100169.44;;;15.83;62.21
54455;BME280;40364;52.270;10.546;2022-11-15T01:48:33;100162.13;;;17.06;56.85
54455;BME280;40364;52.270;10.546;2022-11-15T01:51:02;100165.47;;;16.54;57.84
54455;BME280;40364;52.270;10.546;2022-11-15T01:53:32;100161.31;;;16.26;59.14
54455;BME280;40364;52.270;10.546;2022-11-15T01:56:01;100166.03;;;16.73;56.97
54455;BME280;40364;52.270;10.546;2022-11-15T01:58:29;100166.19;;;15.78;60.21
54455;BME280;40364;52.270;10.546;2022-11-15T02:00:55;100160.91;;;15.73;61.16
54455;BME280;40364;52.270;10.546;2022-11-15T02:03:26;100153.19;;;15.59;62.07
54455;BME280;40364;52.270;10.546;2022-11-15T02:05:57;100150.06;;;15.27;63.82
54455;BME280;40364;52.270;10.546;2022-11-15T02:08:24;100153.69;;;15.31;63.45
54455;BME280;40364;52.270;10.546;2022-11-15T02:10:52;100139.16;;;15.22;63.92
54455;BME280;40364;52.270;10.546;2022-11-15T02:13:19;100134.97;;;15.05;65.25
54455;BME280;40364;52.270;10.546;2022-11-15T02:15:54;100136.91;;;15.38;63.95
54455;BME280;40364;52.270;10.546;2022-11-15T02:18:22;100133.41;;;15.48;63.21
54455;BME280;40364;52.270;10.546;2022-11-15T02:20:56;100132.75;;;15.22;64.98
54455;BME280;40364;52.270;10.546;2022-11-15T02:26:56;100132.31;;;15.60;65.26
54455;BME280;40364;52.270;10.546;2022-11-15T02:29:42;100123.63;;;14.58;68.28
54455;BME280;40364;52.270;10.546;2022-11-15T02:32:23;100113.19;;;15.32;65.31
54455;BME280;40364;52.270;10.546;2022-11-15T02:35:11;100110.16;;;15.07;66.18
54455;BME280;40364;52.270;10.546;2022-11-15T02:37:45;100103.03;;;16.12;61.27
54455;BME280;40364;52.270;10.546;2022-11-15T02:40:23;100111.03;;;16.94;57.53
54455;BME280;40364;52.270;10.546;2022-11-15T02:42:54;100107.78;;;16.88;57.43
54455;BME280;40364;52.270;10.546;2022-11-15T02:45:41;100107.00;;;16.91;56.91
54455;BME280;40364;52.270;10.546;2022-11-15T02:48:12;100106.34;;;16.36;58.37
54455;BME280;40364;52.270;10.546;2022-11-15T02:50:40;100103.38;;;15.53;63.34
54455;BME280;40364;52.270;10.546;2022-11-15T02:53:07;100104.19;;;14.75;67.05
54455;BME280;40364;52.270;10.546;2022-11-15T02:55:36;100109.94;;;14.86;69.09
54455;BME280;40364;52.270;10.546;2022-11-15T02:58:45;100113.84;;;14.78;70.76
54455;BME280;40364;52.270;10.546;2022-11-15T03:01:22;100106.06;;;15.01;70.49
54455;BME280;40364;52.270;10.546;2022-11-15T03:04:06;100108.13;;;14.71;74.80
54455;BME280;40364;52.270;10.546;2022-11-15T03:06:41;100115.16;;;15.25;70.45
54455;BME280;40364;52.270;10.546;2022-11-15T03:09:12;100105.38;;;15.11;72.23
54455;BME280;40364;52.270;10.546;2022-11-15T03:11:48;100100.75;;;15.30;71.56
54455;BME280;40364;52.270;10.546;2022-11-15T03:14:22;100101.84;;;15.59;70.78
54455;BME280;40364;52.270;10.546;2022-11-15T03:16:55;100101.84;;;15.62;71.27
54455;BME280;40364;52.270;10.546;2022-11-15T03:19:30;100093.22;;;15.85;71.57
54455;BME280;40364;52.270;10.546;2022-11-15T03:22:02;100095.31;;;15.99;71.05
54455;BME280;40364;52.270;10.546;2022-11-15T03:24:33;100095.66;;;15.87;72.71
54455;BME280;40364;52.270;10.546;2022-11-15T03:27:03;100090.38;;;15.78;72.96
54455;BME280;40364;52.270;10.546;2022-11-15T03:29:34;100094.81;;;15.82;73.55
54455;BME280;40364;52.270;10.546;2022-11-15T03:32:06;100095.03;;;16.18;70.55
54455;BME280;40364;52.270;10.546;2022-11-15T03:34:38;100089.94;;;15.76;74.06
54455;BME280;40364;52.270;10.546;2022-11-15T03:37:07;100081.13;;;15.77;74.08
54455;BME280;40364;52.270;10.546;2022-11-15T03:39:34;100077.56;;;15.84;72.35
54455;BME280;40364;52.270;10.546;2022-11-15T03:42:07;100084.53;;;16.08;71.96
54455;BME280;40364;52.270;10.546;2022-11-15T03:44:42;100085.44;;;16.26;70.41
54455;BME280;40364;52.270;10.546;2022-11-15T03:47:17;100088.66;;;16.32;70.21
54455;BME280;40364;52.270;10.546;2022-11-15T03:49:52;100077.03;;;16.33;70.93
54455;BME280;40364;52.270;10.546;2022-11-15T03:52:20;100077.09;;;16.44;70.23
54455;BME280;40364;52.270;10.546;2022-11-15T03:54:49;100085.00;;;16.21;70.90
54455;BME280;40364;52.270;10.546;2022-11-15T03:57:16;100076.22;;;15.67;73.93
54455;BME280;40364;52.270;10.546;2022-11-15T03:59:43;100076.97;;;15.61;75.13
54455;BME280;40364;52.270;10.546;2022-11-15T04:02:10;100073.97;;;15.91;73.57
54455;BME280;40364;52.270;10.546;2022-11-15T04:04:37;100082.78;;;15.38;78.34
54455;BME280;40364;52.270;10.546;2022-11-15T04:07:05;100087.53;;;15.74;75.85
54455;BME280;40364;52.270;10.546;2022-11-15T04:09:32;100096.44;;;15.91;74.05
54455;BME280;40364;52.270;10.546;2022-11-15T04:11:58;100094.03;;;15.86;73.79
54455;BME280;40364;52.270;10.546;2022-11-15T04:14:25;100093.25;;;15.41;76.58
54455;BME280;40364;52.270;10.546;2022-11-15T04:16:52;100093.94;;;15.75;74.87
54455;BME280;40364;52.270;10.546;2022-11-15T04:19:18;100089.19;;;15.82;74.23
54455;BME280;40364;52.270;10.546;2022-11-15T04:22:04;100091.03;;;16.19;71.61
54455;BME280;40364;52.270;10.546;2022-11-15T04:24:49;100089.69;;;15.47;75.12
54455;BME280;40364;52.270;10.546;2022-11-15T04:27:15;100099.13;;;15.25;78.09
54455;BME280;40364;52.270;10.546;2022-11-15T04:29:42;100095.75;;;15.53;76.10
54455;BME280;40364;52.270;10.546;2022-11-15T04:32:08;100101.63;;;15.37;75.89
54455;BME280;40364;52.270;10.546;2022-11-15T04:34:35;100105.47;;;15.19;79.33
54455;BME280;40364;52.270;10.546;2022-11-15T04:37:04;100110.63;;;15.13;80.09
54455;BME280;40364;52.270;10.546;2022-11-15T04:39:42;100103.16;;;15.31;78.68
54455;BME280;40364;52.270;10.546;2022-11-15T04:42:09;100103.25;;;14.61;83.33
54455;BME280;40364;52.270;10.546;2022-11-15T04:44:36;100114.72;;;15.23;78.45
54455;BME280;40364;52.270;10.546;2022-11-15T04:47:03;100112.69;;;15.20;77.32
54455;BME280;40364;52.270;10.546;2022-11-15T04:49:29;100110.44;;;15.36;76.80
54455;BME280;40364;52.270;10.546;2022-11-15T04:51:56;100109.25;;;14.96;79.35
54455;BME280;40364;52.270;10.546;2022-11-15T04:54:24;100108.53;;;15.47;76.55
54455;BME280;40364;52.270;10.546;2022-11-15T04:56:51;100112.19;;;15.51;74.05
54455;BME280;40364;52.270;10.546;2022-11-15T04:59:18;100105.34;;;15.08;76.79
54455;BME280;40364;52.270;10.546;2022-11-15T05:01:45;100115.88;;;15.18;76.99
54455;BME280;40364;52.270;10.546;2022-11-15T05:04:11;100108.94;;;15.05;77.44
54455;BME280;40364;52.270;10.546;2022-11-15T05:06:50;100108.53;;;15.06;77.46
54455;BME280;40364;52.270;10.546;2022-11-15T05:09:17;100113.03;;;15.55;73.58
54455;BME280;40364;52.270;10.546;2022-11-15T05:11:46;100110.75;;;15.71;72.80
54455;BME280;40364;52.270;10.546;2022-11-15T05:14:13;100113.31;;;15.91;70.43
54455;BME280;40364;52.270;10.546;2022-11-15T05:16:40;100108.50;;;15.95;70.03
54455;BME280;40364;52.270;10.546;2022-11-15T05:19:07;100110.53;;;15.98;69.68
54455;BME280;40364;52.270;10.546;2022-11-15T05:21:35;100110.09;;;15.89;69.62
54455;BME280;40364;52.270;10.546;2022-11-15T05:24:02;100110.81;;;15.78;71.22
54455;BME280;40364;52.270;10.546;2022-11-15T05:26:29;100108.28;;;15.59;72.55
54455;BME280;40364;52.270;10.546;2022-11-15T05:28:58;100104.66;;;15.59;74.06
54455;BME280;40364;52.270;10.546;2022-11-15T05:31:26;100104.78;;;15.76;73.13
54455;BME280;40364;52.270;10.546;2022-11-15T05:33:54;100107.19;;;15.34;75.22
54455;BME280;40364;52.270;10.546;2022-11-15T05:36:27;100093.53;;;15.29;76.80
54455;BME280;40364;52.270;10.546;2022-11-15T05:38:55;100092.81;;;15.39;74.94
54455;BME280;40364;52.270;10.546;2022-11-15T05:41:25;100093.50;;;16.31;70.70
54455;BME280;40364;52.270;10.546;2022-11-15T05:43:53;100096.56;;;16.05;70.09
54455;BME280;40364;52.270;10.546;2022-11-15T05:46:21;100099.22;;;15.83;71.12
54455;BME280;40364;52.270;10.546;2022-11-15T05:48:50;100095.94;;;15.74;71.58
54455;BME280;40364;52.270;10.546;2022-11-15T05:51:18;100092.50;;;15.99;69.20
54455;BME280;40364;52.270;10.546;2022-11-15T05:53:47;100100.59;;;16.07;68.53
54455;BME280;40364;52.270;10.546;2022-11-15T05:56:14;100110.28;;;16.17;67.50
54455;BME280;40364;52.270;10.546;2022-11-15T05:58:42;100103.09;;;16.27;66.99
54455;BME280;40364;52.270;10.546;2022-11-15T06:01:09;100111.91;;;16.25;66.61
54455;BME280;40364;52.270;10.546;2022-11-15T06:03:37;100102.34;;;16.37;65.97
54455;BME280;40364;52.270;10.546;2022-11-15T06:06:03;100101.09;;;16.27;66.11
54455;BME280;40364;52.270;10.546;2022-11-15T06:08:30;100105.09;;;16.19;65.75
54455;BME280;40364;52.270;10.546;2022-11-15T06:11:03;100113.81;;;16.07;66.97
54455;BME280;40364;52.270;10.546;2022-11-15T06:13:30;100124.53;;;15.91;67.19
54455;BME280;40364;52.270;10.546;2022-11-15T06:15:57;100117.78;;;15.99;66.34
54455;BME280;40364;52.270;10.546;2022-11-15T06:18:24;100117.38;;;15.97;66.49
54455;BME280;40364;52.270;10.546;2022-11-15T06:20:52;100121.28;;;15.81;68.12
54455;BME280;40364;52.270;10.546;2022-11-15T06:23:19;100123.59;;;15.72;68.03
54455;BME280;40364;52.270;10.546;2022-11-15T06:25:45;100126.41;;;15.72;68.68
54455;BME280;40364;52.270;10.546;2022-11-15T06:28:12;100126.91;;;15.81;67.82
54455;BME280;40364;52.270;10.546;2022-11-15T06:30:39;100126.00;;;15.70;68.51
54455;BME280;40364;52.270;10.546;2022-11-15T06:33:05;100115.66;;;15.81;67.98
54455;BME280;40364;52.270;10.546;2022-11-15T06:35:34;100123.41;;;15.99;67.15
54455;BME280;40364;52.270;10.546;2022-11-15T06:38:04;100124.53;;;15.87;67.46
54455;BME280;40364;52.270;10.546;2022-11-15T06:40:33;100129.06;;;16.06;66.87
54455;BME280;40364;52.270;10.546;2022-11-15T06:42:59;100131.75;;;15.85;67.77
54455;BME280;40364;52.270;10.546;2022-11-15T06:45:26;100133.22;;;16.30;66.72
54455;BME280;40364;52.270;10.546;2022-11-15T06:47:53;100135.25;;;15.74;68.60
54455;BME280;40364;52.270;10.546;2022-11-15T06:50:20;100134.31;;;15.60;69.25
54455;BME280;40364;52.270;10.546;2022-11-15T06:52:46;100136.75;;;15.58;69.20
54455;BME280;40364;52.270;10.546;2022-11-15T06:55:15;100136.00;;;15.68;70.14
54455;BME280;40364;52.270;10.546;2022-11-15T06:57:46;100149.66;;;15.69;70.02
54455;BME280;40364;52.270;10.546;2022-11-15T07:00:14;100149.09;;;16.01;67.78
54455;BME280;40364;52.270;10.546;2022-11-15T07:02:41;100141.88;;;16.00;67.21
54455;BME280;40364;52.270;10.546;2022-11-15T07:05:08;100149.09;;;16.01;67.32
54455;BME280;40364;52.270;10.546;2022-11-15T07:07:35;100156.25;;;15.95;67.41
54455;BME280;40364;52.270;10.546;2022-11-15T07:10:02;100168.50;;;15.69;68.59
54455;BME280;40364;52.270;10.546;2022-11-15T07:12:30;100165.16;;;16.04;67.74
54455;BME280;40364;52.270;10.546;2022-11-15T07:14:56;100161.16;;;16.05;66.86
54455;BME280;40364;52.270;10.546;2022-11-15T07:17:23;100170.38;;;16.02;66.75
54455;BME280;40364;52.270;10.546;2022-11-15T07:19:50;100179.91;;;15.90;67.80
54455;BME280;40364;52.270;10.546;2022-11-15T07:22:16;100177.72;;;15.69;69.38
54455;BME280;40364;52.270;10.546;2022-11-15T07:24:43;100184.78;;;15.15;74.15
54455;BME280;40364;52.270;10.546;2022-11-15T07:27:10;100178.66;;;15.43;72.70
54455;BME280;40364;52.270;10.546;2022-11-15T07:29:37;100174.28;;;15.46;73.19
54455;BME280;40364;52.270;10.546;2022-11-15T07:32:04;100171.16;;;15.99;69.84
54455;BME280;40364;52.270;10.546;2022-11-15T07:34:31;100187.00;;;16.28;67.46
54455;BME280;40364;52.270;10.546;2022-11-15T07:36:57;100166.25;;;16.43;66.05
54455;BME280;40364;52.270;10.546;2022-11-15T07:39:24;100170.97;;;17.08;62.72
54455;BME280;40364;52.270;10.546;2022-11-15T07:41:50;100176.28;;;17.35;61.06
54455;BME280;40364;52.270;10.546;2022-11-15T07:44:39;100168.66;;;17.60;60.58
54455;BME280;40364;52.270;10.546;2022-11-15T07:47:05;100163.31;;;16.29;66.12
54455;BME280;40364;52.270;10.546;2022-11-15T07:49:32;100167.94;;;16.00;68.63
54455;BME280;40364;52.270;10.546;2022-11-15T07:51:59;100165.28;;;15.67;71.25
54455;BME280;40364;52.270;10.546;2022-11-15T07:54:25;100174.03;;;15.58;73.50
54455;BME280;40364;52.270;10.546;2022-11-15T07:56:52;100163.97;;;15.16;76.82
54455;BME280;40364;52.270;10.546;2022-11-15T07:59:19;100167.94;;;15.53;75.35
54455;BME280;40364;52.270;10.546;2022-11-15T08:01:47;100159.28;;;16.27;69.79
54455;BME280;40364;52.270;10.546;2022-11-15T08:04:14;100155.81;;;16.51;67.98
54455;BME280;40364;52.270;10.546;2022-11-15T08:06:40;100146.00;;;16.93;66.82
54455;BME280;40364;52.270;10.546;2022-11-15T08:09:07;100151.25;;;17.05;66.01
54455;BME280;40364;52.270;10.546;2022-11-15T08:11:34;100140.41;;;17.00;66.30
54455;BME280;40364;52.270;10.546;2022-11-15T08:14:00;100138.75;;;16.88;67.89
54455;BME280;40364;52.270;10.546;2022-11-15T08:16:27;100137.22;;;17.23;65.94
54455;BME280;40364;52.270;10.546;2022-11-15T08:18:55;100131.66;;;17.40;66.48
54455;BME280;40364;52.270;10.546;2022-11-15T08:21:22;100129.22;;;17.46;66.11
54455;BME280;40364;52.270;10.546;2022-11-15T08:23:49;100130.81;;;17.26;67.49
54455;BME280;40364;52.270;10.546;2022-11-15T08:26:15;100115.53;;;17.34;67.40
54455;BME280;40364;52.270;10.546;2022-11-15T08:28:42;100130.81;;;17.50;66.41
54455;BME280;40364;52.270;10.546;2022-11-15T08:31:13;100120.00;;;17.77;65.51
54455;BME280;40364;52.270;10.546;2022-11-15T08:33:42;100120.00;;;17.92;65.00
54455;BME280;40364;52.270;10.546;2022-11-15T08:36:13;100116.75;;;18.04;64.00
54455;BME280;40364;52.270;10.546;2022-11-15T08:38:40;100111.16;;;17.90;64.56
54455;BME280;40364;52.270;10.546;2022-11-15T08:41:09;100117.59;;;17.94;64.69
54455;BME280;40364;52.270;10.546;2022-11-15T08:43:37;100115.56;;;17.98;64.46
54455;BME280;40364;52.270;10.546;2022-11-15T08:46:04;100117.97;;;17.96;64.57
54455;BME280;40364;52.270;10.546;2022-11-15T08:48:30;100117.19;;;18.02;64.43
54455;BME280;40364;52.270;10.546;2022-11-15T08:50:57;100113.91;;;18.07;63.94
54455;BME280;40364;52.270;10.546;2022-11-15T08:53:25;100111.50;;;18.06;64.43
54455;BME280;40364;52.270;10.546;2022-11-15T08:55:52;100103.44;;;18.11;63.50
54455;BME280;40364;52.270;10.546;2022-11-15T08:58:19;100097.88;;;17.90;64.50
54455;BME280;40364;52.270;10.546;2022-11-15T09:00:45;100097.84;;;17.97;64.11
54455;BME280;40364;52.270;10.546;2022-11-15T09:03:12;100106.69;;;18.06;64.28
54455;BME280;40364;52.270;10.546;2022-11-15T09:05:39;100097.00;;;18.04;64.18
54455;BME280;40364;52.270;10.546;2022-11-15T09:08:05;100108.69;;;18.20;62.14
54455;BME280;40364;52.270;10.546;2022-11-15T09:10:34;100107.84;;;18.27;64.16
54455;BME280;40364;52.270;10.546;2022-11-15T09:13:01;100106.72;;;17.60;67.00
54455;BME280;40364;52.270;10.546;2022-11-15T09:15:28;100111.50;;;18.06;64.61
54455;BME280;40364;52.270;10.546;2022-11-15T09:17:57;100109.88;;;18.19;64.62
54455;BME280;40364;52.270;10.546;2022-11-15T09:20:24;100111.09;;;18.25;64.27
54455;BME280;40364;52.270;10.546;2022-11-15T09:22:51;100111.06;;;19.23;60.26
54455;BME280;40364;52.270;10.546;2022-11-15T09:25:17;100111.41;;;19.29;58.42
54455;BME280;40364;52.270;10.546;2022-11-15T09:27:45;100107.94;;;19.07;59.79
54455;BME280;40364;52.270;10.546;2022-11-15T09:30:13;100122.75;;;19.25;58.45
54455;BME280;40364;52.270;10.546;2022-11-15T09:32:39;100118.34;;;19.21;58.46
54455;BME280;40364;52.270;10.546;2022-11-15T09:35:06;100120.56;;;19.54;57.45
54455;BME280;40364;52.270;10.546;2022-11-15T09:37:33;100118.13;;;19.56;56.90
54455;BME280;40364;52.270;10.546;2022-11-15T09:40:00;100115.09;;;19.26;57.31
54455;BME280;40364;52.270;10.546;2022-11-15T09:42:36;100111.81;;;18.50;62.24
54455;BME280;40364;52.270;10.546;2022-11-15T09:45:16;100114.19;;;18.59;62.30
54455;BME280;40364;52.270;10.546;2022-11-15T09:47:55;100117.34;;;19.52;58.86
54455;BME280;40364;52.270;10.546;2022-11-15T09:50:32;100114.13;;;19.95;56.61
54455;BME280;40364;52.270;10.546;2022-11-15T09:53:00;100108.75;;;19.66;56.05
54455;BME280;40364;52.270;10.546;2022-11-15T09:55:34;100110.50;;;19.46;57.04
54455;BME280;40364;52.270;10.546;2022-11-15T09:58:10;100110.22;;;19.81;57.54
54455;BME280;40364;52.270;10.546;2022-11-15T10:00:44;100104.56;;;20.91;54.01
54455;BME280;40364;52.270;10.546;2022-11-15T10:03:22;100105.66;;;21.31;53.08
54455;BME280;40364;52.270;10.546;2022-11-15T10:05:52;100104.03;;;21.80;50.49
54455;BME280;40364;52.270;10.546;2022-11-15T10:08:31;100100.28;;;22.10;49.62
54455;BME280;40364;52.270;10.546;2022-11-15T10:11:02;100097.94;;;22.05;49.26
54455;BME280;40364;52.270;10.546;2022-11-15T10:13:31;100105.56;;;21.84;49.01
54455;BME280;40364;52.270;10.546;2022-11-15T10:16:07;100092.78;;;21.26;50.00
54455;BME280;40364;52.270;10.546;2022-11-15T10:18:49;100098.44;;;20.65;52.86
54455;BME280;40364;52.270;10.546;2022-11-15T10:21:20;100094.13;;;20.84;52.91
54455;BME280;40364;52.270;10.546;2022-11-15T10:23:52;100082.31;;;20.93;52.58
54455;BME280;40364;52.270;10.546;2022-11-15T10:26:19;100066.25;;;19.80;55.60
54455;BME280;40364;52.270;10.546;2022-11-15T10:28:47;100069.16;;;23.22;46.32
54455;BME280;40364;52.270;10.546;2022-11-15T10:31:25;100065.56;;;20.07;55.35
54455;BME280;40364;52.270;10.546;2022-11-15T10:33:59;100071.78;;;19.43;58.85
54455;BME280;40364;52.270;10.546;2022-11-15T10:36:36;100063.31;;;18.84;60.44
54455;BME280;40364;52.270;10.546;2022-11-15T10:39:03;100065.84;;;21.65;52.07
54455;BME280;40364;52.270;10.546;2022-11-15T10:41:34;100054.13;;;22.29;49.88
54455;BME280;40364;52.270;10.546;2022-11-15T10:44:09;100043.56;;;22.49;48.96
54455;BME280;40364;52.270;10.546;2022-11-15T10:46:40;100045.00;;;21.75;50.49
54455;BME280;40364;52.270;10.546;2022-11-15T10:49:13;100053.78;;;21.07;52.37
54455;BME280;40364;52.270;10.546;2022-11-15T10:51:44;100049.84;;;20.02;56.53
54455;BME280;40364;52.270;10.546;2022-11-15T10:54:12;100043.94;;;19.45;62.62
54455;BME280;40364;52.270;10.546;2022-11-15T10:56:41;100048.19;;;19.15;63.73
54455;BME280;40364;52.270;10.546;2022-11-15T10:59:16;100035.28;;;19.18;63.15
54455;BME280;40364;52.270;10.546;2022-11-15T11:01:48;100039.22;;;19.28;63.64
54455;BME280;40364;52.270;10.546;2022-11-15T11:04:15;100039.53;;;18.85;65.85
54455;BME280;40364;52.270;10.546;2022-11-15T11:06:49;100031.13;;;19.78;61.13
54455;BME280;40364;52.270;10.546;2022-11-15T11:09:25;100042.50;;;20.76;56.02
54455;BME280;40364;52.270;10.546;2022-11-15T11:11:54;100037.97;;;19.80;61.17
54455;BME280;40364;52.270;10.546;2022-11-15T11:14:22;100034.19;;;19.94;60.27
54455;BME280;40364;52.270;10.546;2022-11-15T11:16:55;100032.31;;;19.32;62.88
54455;BME280;40364;52.270;10.546;2022-11-15T11:19:50;100034.28;;;20.55;57.15
54455;BME280;40364;52.270;10.546;2022-11-15T11:22:22;100037.31;;;20.03;60.70
54455;BME280;40364;52.270;10.546;2022-11-15T11:25:03;100038.53;;;19.65;63.63
54455;BME280;40364;52.270;10.546;2022-11-15T11:27:39;100034.28;;;20.21;59.75
54455;BME280;40364;52.270;10.546;2022-11-15T11:30:12;100038.03;;;20.79;57.00
54455;BME280;40364;52.270;10.546;2022-11-15T11:33:07;100034.50;;;20.98;55.84
54455;BME280;40364;52.270;10.546;2022-11-15T11:35:43;100039.25;;;20.13;58.24
54455;BME280;40364;52.270;10.546;2022-11-15T11:38:24;100036.13;;;20.01;58.69
54455;BME280;40364;52.270;10.546;2022-11-15T11:41:03;100040.53;;;20.43;57.81
54455;BME280;40364;52.270;10.546;2022-11-15T11:43:37;100030.03;;;20.43;57.70
54455;BME280;40364;52.270;10.546;2022-11-15T11:46:19;100029.53;;;20.14;59.34
54455;BME280;40364;52.270;10.546;2022-11-15T11:48:53;100030.09;;;19.99;59.78
54455;BME280;40364;52.270;10.546;2022-11-15T11:51:25;100031.63;;;20.07;59.48
54455;BME280;40364;52.270;10.546;2022-11-15T11:53:58;100025.81;;;19.87;60.03
54455;BME280;40364;52.270;10.546;2022-11-15T11:56:29;100024.13;;;19.52;63.11
54455;BME280;40364;52.270;10.546;2022-11-15T11:59:02;100026.75;;;20.11;59.76
54455;BME280;40364;52.270;10.546;2022-11-15T12:01:35;100032.56;;;19.56;61.84
54455;BME280;40364;52.270;10.546;2022-11-15T12:04:09;100032.09;;;19.12;63.80
54455;BME280;40364;52.270;10.546;2022-11-15T12:06:42;100016.56;;;19.35;63.54
54455;BME280;40364;52.270;10.546;2022-11-15T12:09:15;100021.19;;;19.63;62.73
54455;BME280;40364;52.270;10.546;2022-11-15T12:11:50;100021.41;;;20.50;58.50
54455;BME280;40364;52.270;10.546;2022-11-15T12:14:26;100016.88;;;22.07;53.64
54455;BME280;40364;52.270;10.546;2022-11-15T12:16:54;100010.13;;;22.21;51.69
54455;BME280;40364;52.270;10.546;2022-11-15T12:19:22;100013.19;;;22.66;50.52
54455;BME280;40364;52.270;10.546;2022-11-15T12:21:53;100008.03;;;22.81;49.75
54455;BME280;40364;52.270;10.546;2022-11-15T12:24:27;100013.50;;;21.93;52.14
54455;BME280;40364;52.270;10.546;2022-11-15T12:27:00;100009.72;;;21.06;55.60
54455;BME280;40364;52.270;10.546;2022-11-15T12:29:32;100009.22;;;20.84;56.52
54455;BME280;40364;52.270;10.546;2022-11-15T12:32:01;100013.03;;;21.28;55.54
54455;BME280;40364;52.270;10.546;2022-11-15T12:34:37;99991.16;;;21.51;54.10
54455;BME280;40364;52.270;10.546;2022-11-15T12:40:28;99987.72;;;22.63;50.01
54455;BME280;40364;52.270;10.546;2022-11-15T12:43:05;99988.72;;;21.97;51.43
54455;BME280;40364;52.270;10.546;2022-11-15T12:45:38;99987.06;;;22.75;48.83
54455;BME280;40364;52.270;10.546;2022-11-15T12:54:56;99979.72;;;23.75;45.93
54455;BME280;40364;52.270;10.546;2022-11-15T12:57:40;99975.47;;;23.34;46.63
54455;BME280;40364;52.270;10.546;2022-11-15T13:03:27;99967.22;;;23.56;45.87
54455;BME280;40364;52.270;10.546;2022-11-15T13:06:07;99973.16;;;23.29;46.13
54455;BME280;40364;52.270;10.546;2022-11-15T13:08:42;99961.38;;;23.47;45.85
54455;BME280;40364;52.270;10.546;2022-11-15T13:14:49;99967.75;;;23.35;46.42